Time;durP1;ratioP1;P1;durP2;ratioP2;P2;SDS_P1;SDS_P2;PMS_P1;PMS_P2;Temp;Humidity;BMP_temperature;BMP_pressure;BME280_temperature;BME280_humidity;BME280_pressure;Samples;Min_cycle;Max_cycle;Signal;HPM_P1;HPM_P2
2022/02/07 00:01:42;;;;;;;11.45;1.80;;;5.30;80.70;;;;;;5046288;28;20056;-90
2022/02/07 00:04:09;;;;;;;15.02;1.90;;;5.40;80.80;;;;;;5050368;28;20024;-89
2022/02/07 00:06:39;;;;;;;9.90;2.10;;;5.40;80.90;;;;;;5063412;28;20510;-89
2022/02/07 00:09:04;;;;;;;18.42;2.55;;;5.40;80.80;;;;;;5071279;28;20033;-89
2022/02/07 00:11:30;;;;;;;16.70;2.13;;;5.40;80.60;;;;;;5048592;28;20028;-89
2022/02/07 00:13:56;;;;;;;14.30;3.03;;;5.40;80.40;;;;;;5040322;28;20040;-88
2022/02/07 00:16:22;;;;;;;12.15;2.13;;;5.40;80.10;;;;;;5036518;28;20123;-88
2022/02/07 00:18:47;;;;;;;17.55;2.50;;;5.40;80.10;;;;;;5034560;28;20078;-88
2022/02/07 00:21:13;;;;;;;14.52;2.33;;;5.50;79.70;;;;;;5032497;28;20078;-88
2022/02/07 00:23:39;;;;;;;12.70;1.98;;;5.50;79.80;;;;;;5035766;28;20021;-89
2022/02/07 00:26:04;;;;;;;9.00;1.92;;;5.50;79.10;;;;;;5039108;28;20376;-90
2022/02/07 00:28:30;;;;;;;6.68;2.25;;;5.50;78.00;;;;;;5027477;28;20091;-89
2022/02/07 00:30:56;;;;;;;3.45;0.98;;;5.50;77.20;;;;;;5060374;28;20021;-88
2022/02/07 00:33:21;;;;;;;5.45;0.93;;;5.40;76.60;;;;;;5022257;28;20439;-88
2022/02/07 00:35:47;;;;;;;4.97;0.90;;;5.40;76.60;;;;;;5020020;28;20021;-87
2022/02/07 00:38:18;;;;;;;4.53;0.90;;;5.40;76.80;;;;;;5014944;28;20119;-89
2022/02/07 00:43:36;;;;;;;3.20;0.60;;;5.20;74.90;;;;;;5052929;28;20040;-89
2022/02/07 00:46:08;;;;;;;5.93;0.90;;;5.20;75.10;;;;;;5037267;28;20428;-89
2022/02/07 00:48:34;;;;;;;6.40;0.80;;;5.20;75.50;;;;;;5036683;28;20022;-89
2022/02/07 00:51:04;;;;;;;4.63;0.70;;;5.20;75.50;;;;;;5047100;28;20039;-89
2022/02/07 00:53:33;;;;;;;5.43;0.98;;;5.20;75.30;;;;;;5041557;28;20029;-90
2022/02/07 00:56:00;;;;;;;6.10;1.02;;;5.20;74.80;;;;;;5029111;28;20041;-89
2022/02/07 00:58:26;;;;;;;6.50;1.00;;;5.20;74.90;;;;;;5057710;28;20039;-89
2022/02/07 01:00:55;;;;;;;6.97;1.40;;;5.10;75.00;;;;;;5031194;28;20495;-90
2022/02/07 01:03:22;;;;;;;5.85;1.10;;;5.20;75.30;;;;;;5062064;28;20028;-89
2022/02/07 01:05:48;;;;;;;8.95;1.50;;;5.20;75.00;;;;;;5063680;28;20020;-89
2022/02/07 01:08:17;;;;;;;6.90;1.05;;;5.10;74.90;;;;;;5044636;28;20041;-91
2022/02/07 01:16:12;;;;;;;8.25;0.93;;;5.10;75.70;;;;;;5041336;28;20132;-89
2022/02/07 01:53:54;;;;;;;;;;;5.00;78.00;;;;;;5046315;28;20074;-88
2022/02/07 01:56:26;;;;;;;13.65;2.28;;;5.00;78.10;;;;;;5063097;28;19943;-88
2022/02/07 01:58:52;;;;;;;13.38;2.58;;;5.00;78.40;;;;;;5048639;28;20032;-88
2022/02/07 02:01:17;;;;;;;17.63;2.30;;;5.00;78.60;;;;;;5039730;28;20035;-88
2022/02/07 02:03:43;;;;;;;11.85;2.80;;;5.00;78.80;;;;;;5036387;28;20029;-88
2022/02/07 02:06:10;;;;;;;15.30;2.20;;;5.00;78.80;;;;;;5049446;28;20033;-89
2022/02/07 02:08:39;;;;;;;14.70;2.47;;;5.00;78.90;;;;;;5036226;28;20059;-88
2022/02/07 02:11:05;;;;;;;14.55;1.90;;;5.00;79.00;;;;;;5035348;28;20086;-88
2022/02/07 02:13:49;;;;;;;13.15;1.85;;;5.00;79.10;;;;;;5034762;28;20029;-89
2022/02/07 02:16:27;;;;;;;12.60;2.28;;;5.00;79.00;;;;;;5036974;28;20025;-88
2022/02/07 02:47:50;;;;;;;14.02;2.20;;;5.10;79.00;;;;;;5054263;28;20535;-89
2022/02/07 02:50:28;;;;;;;16.52;2.35;;;5.10;79.10;;;;;;5037311;28;20128;-89
2022/02/07 02:52:55;;;;;;;14.00;2.47;;;5.10;79.40;;;;;;5038967;28;20033;-88
2022/02/07 02:55:21;;;;;;;17.27;2.20;;;5.10;80.10;;;;;;5053982;28;20032;-88
2022/02/07 02:57:47;;;;;;;14.88;2.05;;;5.10;79.80;;;;;;5036937;28;20048;-89
2022/02/07 03:00:13;;;;;;;17.70;2.78;;;5.10;79.80;;;;;;5037056;28;20017;-89
2022/02/07 03:02:39;;;;;;;16.13;2.20;;;5.20;80.00;;;;;;5053548;28;20476;-88
2022/02/07 03:05:05;;;;;;;16.92;2.80;;;5.20;80.00;;;;;;5053256;28;20108;-89
2022/02/07 03:07:31;;;;;;;20.85;2.53;;;5.10;80.00;;;;;;5036773;28;20567;-89
2022/02/07 03:09:59;;;;;;;24.73;3.30;;;5.10;80.10;;;;;;5036909;28;20055;-89
2022/02/07 03:12:26;;;;;;;13.18;2.53;;;5.10;80.10;;;;;;5036807;28;20562;-88
2022/02/07 03:14:52;;;;;;;15.90;2.22;;;5.10;80.20;;;;;;5037079;28;20087;-89
2022/02/07 03:17:18;;;;;;;20.75;3.67;;;5.10;80.00;;;;;;5037051;28;20442;-89
2022/02/07 03:19:44;;;;;;;16.48;2.72;;;5.10;80.00;;;;;;5036831;28;20029;-89
2022/02/07 03:22:10;;;;;;;21.95;2.70;;;5.20;80.00;;;;;;5036591;28;20096;-87
2022/02/07 03:24:36;;;;;;;22.13;2.88;;;5.20;80.00;;;;;;5053598;28;20024;-88
2022/02/07 03:27:02;;;;;;;15.73;3.22;;;5.10;80.00;;;;;;5053804;28;20112;-88
2022/02/07 03:29:28;;;;;;;15.90;2.60;;;5.20;80.00;;;;;;5053569;28;20043;-90
2022/02/07 03:31:54;;;;;;;18.98;3.60;;;5.20;79.80;;;;;;5037051;28;20037;-89
2022/02/07 03:34:19;;;;;;;19.27;3.05;;;5.20;79.40;;;;;;5052690;28;20043;-88
2022/02/07 03:36:45;;;;;;;18.95;2.58;;;5.20;79.40;;;;;;5036189;28;20040;-88
2022/02/07 03:39:11;;;;;;;22.35;3.65;;;5.20;79.30;;;;;;5035929;28;20147;-88
2022/02/07 03:41:37;;;;;;;24.67;2.92;;;5.20;78.90;;;;;;5035919;28;20104;-88
2022/02/07 03:44:03;;;;;;;15.77;2.47;;;5.30;78.50;;;;;;5036436;28;20556;-88
2022/02/07 03:46:29;;;;;;;16.63;2.88;;;5.30;78.50;;;;;;5052335;28;20495;-88
2022/02/07 03:48:55;;;;;;;12.65;2.33;;;5.30;78.20;;;;;;5052692;28;20025;-88
2022/02/07 03:51:20;;;;;;;15.35;2.70;;;5.30;78.20;;;;;;5015534;28;20037;-88
2022/02/07 03:53:46;;;;;;;17.17;2.60;;;5.40;78.00;;;;;;5037618;28;20052;-88
2022/02/07 03:56:13;;;;;;;18.65;2.53;;;5.40;78.40;;;;;;5051609;28;20068;-88
2022/02/07 03:58:38;;;;;;;20.27;2.47;;;5.40;77.50;;;;;;5052137;28;20025;-88
2022/02/07 04:01:05;;;;;;;17.98;3.40;;;5.50;77.50;;;;;;5051700;28;20546;-87
2022/02/07 04:03:33;;;;;;;19.42;2.42;;;5.50;77.30;;;;;;5035432;28;20025;-89
2022/02/07 04:06:11;;;;;;;21.17;2.75;;;5.50;77.00;;;;;;5036950;28;20071;-88
2022/02/07 04:08:40;;;;;;;16.33;2.75;;;5.60;76.70;;;;;;5053272;28;20055;-88
2022/02/07 04:13:34;;;;;;;19.20;2.97;;;5.60;76.50;;;;;;5053524;28;20035;-89
2022/02/07 04:16:02;;;;;;;12.60;2.33;;;5.60;76.50;;;;;;5035992;28;20025;-88
2022/02/07 04:18:33;;;;;;;12.50;2.00;;;5.60;76.40;;;;;;5051377;28;20044;-89
2022/02/07 04:21:00;;;;;;;15.98;2.60;;;5.60;76.40;;;;;;5035583;28;20037;-89
2022/02/07 04:23:26;;;;;;;17.42;3.22;;;5.70;76.10;;;;;;5035285;28;20029;-89
2022/02/07 04:25:52;;;;;;;18.35;2.88;;;5.70;76.10;;;;;;5035265;28;20064;-88
2022/02/07 04:28:18;;;;;;;18.23;2.53;;;5.70;76.40;;;;;;5034730;28;20057;-88
2022/02/07 04:30:44;;;;;;;17.23;3.08;;;5.70;76.20;;;;;;5051088;28;20024;-88
2022/02/07 04:33:10;;;;;;;11.88;2.05;;;5.70;76.30;;;;;;5051438;28;20021;-89
2022/02/07 04:35:36;;;;;;;15.18;2.63;;;5.80;76.20;;;;;;5051590;28;20395;-88
2022/02/07 04:38:01;;;;;;;8.80;2.17;;;5.80;76.50;;;;;;5034807;28;20082;-88
2022/02/07 04:40:27;;;;;;;18.55;2.63;;;5.80;76.60;;;;;;5036057;28;20543;-89
2022/02/07 04:42:53;;;;;;;18.80;3.00;;;5.90;76.60;;;;;;5036095;28;20079;-88
2022/02/07 04:45:46;;;;;;;18.58;4.28;;;5.80;76.60;;;;;;5036030;28;20021;-89
2022/02/07 04:59:03;;;;;;;18.15;3.42;;;5.90;77.20;;;;;;5052350;28;20105;-89
2022/02/07 05:03:59;;;;;;;13.32;2.03;;;5.90;77.10;;;;;;5052210;28;20037;-89
2022/02/07 05:14:39;;;;;;;24.55;4.97;;;6.00;77.50;;;;;;5052353;28;20095;-88
2022/02/07 05:17:08;;;;;;;19.45;3.15;;;6.00;77.40;;;;;;5051973;28;20048;-89
2022/02/07 05:19:33;;;;;;;17.85;2.63;;;6.00;77.50;;;;;;5034953;28;20029;-89
2022/02/07 05:21:59;;;;;;;14.27;2.67;;;6.00;77.70;;;;;;5034534;28;20029;-89
2022/02/07 05:24:25;;;;;;;15.82;2.20;;;6.00;77.70;;;;;;5034395;28;20419;-88
2022/02/07 05:26:50;;;;;;;17.80;3.15;;;6.00;77.90;;;;;;5034173;28;20136;-89
2022/02/07 05:29:16;;;;;;;16.35;2.70;;;6.00;77.90;;;;;;5034137;28;20081;-88
2022/02/07 05:31:42;;;;;;;12.13;2.70;;;6.10;78.00;;;;;;5035246;28;20494;-88
2022/02/07 05:34:07;;;;;;;17.67;2.50;;;6.10;77.90;;;;;;5028968;28;20079;-88
2022/02/07 05:36:40;;;;;;;20.02;2.38;;;6.10;77.90;;;;;;5041044;28;20037;-88
2022/02/07 05:39:06;;;;;;;11.82;2.47;;;6.10;78.00;;;;;;5054094;28;20531;-88
2022/02/07 05:41:32;;;;;;;16.88;2.45;;;6.10;78.10;;;;;;5033582;28;20029;-88
2022/02/07 05:43:58;;;;;;;13.73;2.95;;;6.10;78.10;;;;;;5050339;28;20029;-89
2022/02/07 05:46:24;;;;;;;15.88;2.47;;;6.20;78.20;;;;;;5017568;28;20021;-88
2022/02/07 05:48:49;;;;;;;17.27;2.90;;;6.20;78.10;;;;;;5034213;28;20521;-88
2022/02/07 05:51:16;;;;;;;18.80;3.08;;;6.20;78.10;;;;;;5029474;28;20116;-88
2022/02/07 05:53:41;;;;;;;22.30;4.07;;;6.20;78.20;;;;;;5035824;28;20041;-88
2022/02/07 05:56:07;;;;;;;22.80;3.63;;;6.20;78.10;;;;;;5051690;28;20034;-89
2022/02/07 05:58:33;;;;;;;16.92;3.50;;;6.20;78.30;;;;;;5049962;28;20090;-88
2022/02/07 06:00:59;;;;;;;14.73;2.65;;;6.20;78.50;;;;;;5031268;28;20477;-89
2022/02/07 06:03:25;;;;;;;15.48;2.63;;;6.20;78.60;;;;;;5014931;28;20025;-88
2022/02/07 06:05:50;;;;;;;10.80;3.30;;;6.20;78.80;;;;;;5014187;28;20088;-87
2022/02/07 06:08:17;;;;;;;10.25;1.77;;;6.20;79.20;;;;;;5003842;28;20371;-88
2022/02/07 06:10:44;;;;;;;9.07;1.10;;;6.20;79.20;;;;;;5033265;28;20484;-88
2022/02/07 06:13:18;;;;;;;12.27;1.52;;;6.10;79.10;;;;;;5035646;28;20438;-89
2022/02/07 06:15:45;;;;;;;12.65;2.30;;;6.10;79.40;;;;;;5054756;28;20031;-88
2022/02/07 06:18:14;;;;;;;13.70;2.05;;;6.00;79.70;;;;;;5054394;28;20021;-89
2022/02/07 06:20:40;;;;;;;14.80;2.67;;;5.90;80.30;;;;;;5039173;28;20040;-89
2022/02/07 06:23:05;;;;;;;14.68;2.58;;;5.90;80.70;;;;;;5037905;28;20021;-88
2022/02/07 06:25:31;;;;;;;16.70;2.65;;;5.90;80.90;;;;;;5024644;28;20030;-88
2022/02/07 06:27:57;;;;;;;15.40;2.53;;;5.90;80.90;;;;;;5017868;28;20029;-88
2022/02/07 06:30:23;;;;;;;14.35;2.97;;;5.90;81.10;;;;;;5016898;28;20025;-88
2022/02/07 06:32:48;;;;;;;16.33;2.55;;;5.90;81.20;;;;;;5033760;28;20034;-88
2022/02/07 06:35:15;;;;;;;13.88;2.15;;;5.90;81.20;;;;;;5001164;28;20052;-88
2022/02/07 06:37:41;;;;;;;13.90;3.00;;;5.80;81.30;;;;;;5001360;28;20127;-88
2022/02/07 06:40:08;;;;;;;13.82;2.17;;;5.80;81.30;;;;;;5033472;28;20496;-87
2022/02/07 06:42:33;;;;;;;13.60;2.70;;;5.80;81.50;;;;;;5033624;28;20485;-88
2022/02/07 06:44:59;;;;;;;16.63;3.38;;;5.80;81.50;;;;;;5042016;28;20028;-87
2022/02/07 06:47:25;;;;;;;16.30;3.20;;;5.80;81.60;;;;;;5054092;28;20025;-89
2022/02/07 06:49:51;;;;;;;14.82;2.28;;;5.80;81.90;;;;;;5052823;28;20487;-88
2022/02/07 06:52:17;;;;;;;10.07;1.95;;;5.80;81.70;;;;;;5036694;28;20099;-89
2022/02/07 06:54:43;;;;;;;16.23;2.30;;;5.80;81.80;;;;;;5037046;28;20039;-88
2022/02/07 06:57:08;;;;;;;13.98;2.30;;;5.80;81.90;;;;;;5036540;28;20067;-89
2022/02/07 06:59:40;;;;;;;15.63;3.10;;;5.80;82.00;;;;;;5036730;28;20029;-88
2022/02/07 07:02:06;;;;;;;18.63;3.03;;;5.70;82.00;;;;;;5038061;28;20480;-88
2022/02/07 07:04:32;;;;;;;12.77;2.53;;;5.80;82.00;;;;;;5037476;28;20075;-89
2022/02/07 07:06:58;;;;;;;17.02;2.50;;;5.80;82.20;;;;;;5037324;28;20025;-88
2022/02/07 07:09:23;;;;;;;16.77;3.08;;;5.80;82.20;;;;;;5053608;28;20104;-88
2022/02/07 07:11:49;;;;;;;21.38;3.10;;;5.80;82.30;;;;;;5037057;28;20036;-88
2022/02/07 07:14:29;;;;;;;23.15;3.58;;;5.80;82.30;;;;;;5037081;28;20040;-88
2022/02/07 07:16:55;;;;;;;16.95;3.00;;;5.80;82.20;;;;;;5038997;28;20029;-89
2022/02/07 07:19:22;;;;;;;18.75;3.05;;;5.80;82.30;;;;;;5036621;28;20050;-88
2022/02/07 07:21:48;;;;;;;33.40;3.50;;;5.80;82.20;;;;;;5053399;28;20018;-88
2022/02/07 07:24:16;;;;;;;18.80;2.85;;;5.80;82.20;;;;;;5035681;28;20079;-88
2022/02/07 07:26:42;;;;;;;19.52;3.65;;;5.80;82.30;;;;;;5052879;28;20083;-88
2022/02/07 07:29:12;;;;;;;21.10;3.50;;;5.80;82.30;;;;;;5035499;28;20033;-88
2022/02/07 07:31:43;;;;;;;15.77;2.60;;;5.80;82.30;;;;;;5036211;28;20028;-88
2022/02/07 07:34:09;;;;;;;22.15;3.40;;;5.80;82.40;;;;;;5036653;28;20079;-88
2022/02/07 07:36:34;;;;;;;20.65;3.47;;;5.90;82.40;;;;;;5052737;28;20060;-89
2022/02/07 07:39:00;;;;;;;14.88;3.20;;;5.80;82.30;;;;;;5035582;28;20029;-88
2022/02/07 07:41:27;;;;;;;17.30;3.78;;;5.80;82.40;;;;;;5018873;28;20480;-88
2022/02/07 07:43:59;;;;;;;16.20;2.88;;;5.80;82.40;;;;;;5037069;28;20031;-88
2022/02/07 07:46:29;;;;;;;22.92;4.00;;;5.80;82.40;;;;;;5052670;28;20026;-89
2022/02/07 07:49:03;;;;;;;18.00;2.85;;;5.80;82.30;;;;;;5036161;28;20029;-88
2022/02/07 07:51:45;;;;;;;23.42;3.53;;;5.80;82.20;;;;;;5048300;28;20028;-88
2022/02/07 07:54:21;;;;;;;19.15;3.72;;;5.90;82.20;;;;;;5030183;28;20032;-88
2022/02/07 08:02:18;;;;;;;14.27;3.30;;;5.90;82.30;;;;;;5055130;28;20159;-93
2022/02/07 08:04:45;;;;;;;16.88;2.60;;;5.80;82.20;;;;;;5022289;28;20108;-92
2022/02/07 08:12:13;;;;;;;24.38;3.28;;;5.90;82.30;;;;;;5039551;28;20128;-91
2022/02/07 08:14:39;;;;;;;21.67;4.10;;;5.90;82.20;;;;;;5037706;28;20116;-92
2022/02/07 08:17:07;;;;;;;22.25;3.70;;;5.90;82.20;;;;;;5054463;28;20120;-91
2022/02/07 08:19:33;;;;;;;20.30;3.10;;;5.90;82.20;;;;;;5054204;28;20029;-90
2022/02/07 08:22:00;;;;;;;22.70;3.15;;;6.00;82.30;;;;;;5035531;28;20033;-88
2022/02/07 08:24:26;;;;;;;21.38;4.68;;;6.00;82.20;;;;;;5051268;28;20033;-88
2022/02/07 08:26:54;;;;;;;14.35;3.33;;;6.00;82.10;;;;;;5051460;28;20029;-88
2022/02/07 08:29:21;;;;;;;18.67;3.05;;;6.00;82.10;;;;;;5031286;28;20025;-88
2022/02/07 08:31:47;;;;;;;23.25;3.20;;;6.10;81.90;;;;;;5033547;28;20062;-88
2022/02/07 08:34:12;;;;;;;20.25;3.10;;;6.10;81.90;;;;;;5034350;28;20095;-88
2022/02/07 08:36:38;;;;;;;16.65;3.40;;;6.10;81.90;;;;;;5050000;28;20021;-88
2022/02/07 08:39:04;;;;;;;22.92;3.38;;;6.20;81.90;;;;;;5033416;28;20483;-88
2022/02/07 08:41:30;;;;;;;20.98;3.83;;;6.20;81.80;;;;;;5034270;28;20029;-88
2022/02/07 08:43:57;;;;;;;19.00;3.13;;;6.20;81.80;;;;;;5051316;28;20036;-88
2022/02/07 08:46:23;;;;;;;21.45;3.92;;;6.30;81.70;;;;;;5034186;28;20039;-87
2022/02/07 08:48:49;;;;;;;23.50;3.42;;;6.30;81.50;;;;;;5050589;28;20392;-88
2022/02/07 08:51:16;;;;;;;20.35;3.55;;;6.40;81.70;;;;;;5050230;28;20029;-88
2022/02/07 08:53:44;;;;;;;21.38;3.75;;;6.40;81.70;;;;;;5053417;28;20050;-92
2022/02/07 08:56:11;;;;;;;18.45;3.47;;;6.40;81.50;;;;;;5037485;28;20476;-92
2022/02/07 08:58:42;;;;;;;23.27;3.72;;;6.50;81.40;;;;;;5037079;28;20036;-92
2022/02/07 09:01:22;;;;;;;29.52;3.83;;;6.50;81.20;;;;;;5037094;28;20021;-91
2022/02/07 09:11:10;;;;;;;19.88;3.40;;;6.70;80.90;;;;;;5050539;28;20076;-88
2022/02/07 09:13:39;;;;;;;24.20;3.63;;;6.80;81.10;;;;;;5050513;28;20044;-89
2022/02/07 09:18:40;;;;;;;21.58;4.32;;;6.90;80.90;;;;;;5050305;28;20868;-89
2022/02/07 09:21:07;;;;;;;23.40;4.13;;;7.00;80.80;;;;;;5031640;28;20536;-89
2022/02/07 09:23:37;;;;;;;18.08;3.10;;;7.10;80.30;;;;;;5049657;28;20020;-89
2022/02/07 09:26:03;;;;;;;19.95;3.78;;;7.10;80.40;;;;;;5050094;28;20021;-89
2022/02/07 09:28:30;;;;;;;18.13;3.55;;;7.20;80.50;;;;;;5018065;28;20091;-89
2022/02/07 09:30:56;;;;;;;21.83;3.28;;;7.20;80.00;;;;;;5017985;28;20037;-89
2022/02/07 09:33:23;;;;;;;22.67;3.80;;;7.30;79.90;;;;;;5025798;28;20091;-89
2022/02/07 09:35:51;;;;;;;17.92;3.33;;;7.30;79.70;;;;;;5038040;28;20033;-89
2022/02/07 09:38:18;;;;;;;20.95;3.38;;;7.40;79.90;;;;;;5044480;28;20524;-88
2022/02/07 09:40:50;;;;;;;15.70;3.53;;;7.50;79.80;;;;;;5051369;28;20045;-90
2022/02/07 09:43:17;;;;;;;;;;;7.60;79.30;;;;;;5037722;28;20066;-89
2022/02/07 09:45:45;;;;;;;21.77;3.13;;;7.70;78.90;;;;;;5034011;28;19912;-89
2022/02/07 09:48:11;;;;;;;19.50;3.35;;;7.70;78.80;;;;;;5054340;28;20446;-89
2022/02/07 09:50:38;;;;;;;19.13;3.20;;;7.80;78.80;;;;;;5033939;28;20025;-89
2022/02/07 09:53:04;;;;;;;18.17;3.35;;;8.00;77.90;;;;;;5035767;28;20033;-89
2022/02/07 09:55:31;;;;;;;22.42;3.47;;;8.00;77.90;;;;;;5048118;28;20082;-89
2022/02/07 09:57:57;;;;;;;21.33;3.53;;;8.10;77.60;;;;;;5041576;28;20037;-89
2022/02/07 10:00:33;;;;;;;16.83;3.08;;;8.20;77.30;;;;;;5033846;28;20396;-89
2022/02/07 10:03:15;;;;;;;21.45;4.53;;;8.30;77.30;;;;;;5049329;28;20132;-89
2022/02/07 10:05:49;;;;;;;18.13;4.27;;;8.40;76.40;;;;;;5047797;28;20063;-90
2022/02/07 10:08:19;;;;;;;17.80;2.75;;;8.40;76.20;;;;;;5045371;28;20040;-89
2022/02/07 10:16:31;;;;;;;16.63;2.85;;;8.10;74.90;;;;;;5056390;28;20036;-89
2022/02/07 10:19:19;;;;;;;15.98;2.97;;;8.00;74.30;;;;;;5044195;28;20191;-90
2022/02/07 10:38:26;;;;;;;11.88;2.35;;;8.00;73.10;;;;;;5054987;28;20037;-89
2022/02/07 10:46:16;;;;;;;17.25;3.58;;;8.30;72.70;;;;;;5054754;28;20040;-89
2022/02/07 10:51:09;;;;;;;19.85;2.50;;;8.70;71.30;;;;;;5105820;27;20801;-67
2022/02/07 10:53:36;;;;;;;15.13;2.58;;;8.80;70.40;;;;;;5080727;28;20135;-67
2022/02/07 10:56:02;;;;;;;14.73;3.20;;;8.90;70.50;;;;;;5085210;28;20366;-67
2022/02/07 10:58:30;;;;;;;16.35;2.95;;;9.10;70.50;;;;;;5088421;28;20036;-67
2022/02/07 11:03:05;;;;;;;11.02;2.30;;;9.30;68.80;;;;;;5054262;28;20445;-68
2022/02/07 11:05:38;;;;;;;16.27;2.83;;;9.30;69.40;;;;;;5031918;28;20087;-68
2022/02/07 11:08:18;;;;;;;13.57;2.80;;;9.40;69.30;;;;;;5047417;28;20558;-67
2022/02/07 11:16:47;;;;;;;13.30;2.70;;;9.60;68.20;;;;;;5033488;28;20048;-68
2022/02/07 11:22:14;;;;;;;12.05;2.15;;;9.50;68.00;;;;;;5017327;28;20033;-69
2022/02/07 11:26:02;;;;;;;15.95;2.60;;;9.70;67.00;;;;;;5058722;28;20377;-69
2022/02/07 11:28:38;;;;;;;17.42;3.30;;;9.80;67.40;;;;;;5046489;28;20040;-68
2022/02/07 11:31:10;;;;;;;12.30;2.78;;;9.80;66.70;;;;;;5040274;28;20029;-68
2022/02/07 11:36:29;;;;;;;13.48;2.45;;;10.00;65.40;;;;;;5045551;28;20029;-69
2022/02/07 11:39:07;;;;;;;15.35;2.35;;;10.10;65.20;;;;;;5073256;28;20071;-69
2022/02/07 11:41:51;;;;;;;18.25;2.60;;;10.30;66.30;;;;;;5030256;28;20160;-69
2022/02/07 11:44:17;;;;;;;11.45;2.17;;;10.50;64.50;;;;;;5049589;28;20395;-68
2022/02/07 11:46:46;;;;;;;13.52;2.45;;;10.50;64.50;;;;;;5045206;28;20112;-68
2022/02/07 11:49:12;;;;;;;12.30;2.95;;;10.60;61.80;;;;;;5046478;28;20357;-69
2022/02/07 11:51:39;;;;;;;10.73;2.78;;;10.70;63.70;;;;;;5042252;28;20516;-68
2022/02/07 11:54:07;;;;;;;7.35;1.83;;;10.90;60.90;;;;;;5046202;28;20038;-68
2022/02/07 11:56:47;;;;;;;10.40;2.20;;;10.80;60.30;;;;;;5027978;28;20033;-68
2022/02/07 12:01:58;;;;;;;7.70;2.13;;;10.50;60.70;;;;;;5040650;28;20041;-68
2022/02/07 12:04:42;;;;;;;9.18;1.92;;;10.80;61.60;;;;;;5037735;28;20033;-69
2022/02/07 12:07:08;;;;;;;11.80;2.25;;;11.30;60.40;;;;;;5036400;28;20072;-69
2022/02/07 12:09:36;;;;;;;10.88;2.10;;;11.60;59.60;;;;;;5045675;28;20137;-69
2022/02/07 12:12:03;;;;;;;11.10;2.50;;;11.60;58.80;;;;;;5045121;28;20025;-69
2022/02/07 12:14:37;;;;;;;14.10;2.05;;;11.50;58.80;;;;;;5045870;28;20432;-69
2022/02/07 12:17:04;;;;;;;10.57;2.45;;;11.90;58.50;;;;;;5046446;28;20022;-68
2022/02/07 12:19:40;;;;;;;9.77;2.20;;;12.20;57.70;;;;;;5045467;28;20450;-69
2022/02/07 12:22:17;;;;;;;13.25;2.20;;;12.00;57.80;;;;;;5045823;28;20480;-68
2022/02/07 12:25:08;;;;;;;16.08;2.60;;;11.70;58.50;;;;;;5043036;28;20076;-69
2022/02/07 12:27:44;;;;;;;10.48;2.03;;;11.60;59.40;;;;;;5044037;28;20064;-69
2022/02/07 12:33:17;;;;;;;8.60;1.92;;;13.30;54.60;;;;;;5056275;28;20370;-68
2022/02/07 12:35:45;;;;;;;11.18;2.13;;;13.90;52.10;;;;;;5044289;28;20087;-68
2022/02/07 12:38:12;;;;;;;8.95;2.00;;;13.40;52.30;;;;;;5038499;28;20243;-69
2022/02/07 12:40:42;;;;;;;9.80;1.73;;;12.70;53.50;;;;;;5055364;28;20092;-69
2022/02/07 12:43:12;;;;;;;8.13;2.10;;;12.10;55.20;;;;;;5045175;28;20392;-71
2022/02/07 12:46:35;;;;;;;7.88;1.70;;;12.60;55.00;;;;;;5078093;27;20376;-70
2022/02/07 12:49:04;;;;;;;6.60;1.58;;;13.70;52.50;;;;;;5075591;28;20035;-70
2022/02/07 12:51:43;;;;;;;9.80;2.00;;;14.60;50.10;;;;;;5075459;28;20436;-71
2022/02/07 12:54:11;;;;;;;8.93;2.28;;;15.30;47.70;;;;;;5107834;27;20357;-66
2022/02/07 12:56:37;;;;;;;9.75;1.92;;;15.10;47.20;;;;;;5080590;28;20047;-67
2022/02/07 12:59:03;;;;;;;19.10;3.05;;;14.30;48.50;;;;;;5080039;28;20098;-66
2022/02/07 13:01:31;;;;;;;8.90;1.60;;;13.40;50.20;;;;;;5073938;28;20036;-66
2022/02/07 13:04:03;;;;;;;8.93;1.75;;;12.50;51.80;;;;;;5084578;28;20502;-72
2022/02/07 13:06:34;;;;;;;8.27;1.58;;;11.90;53.80;;;;;;5076253;28;20028;-70
2022/02/07 13:09:10;;;;;;;9.82;2.03;;;11.50;55.30;;;;;;5084520;28;20036;-69
2022/02/07 13:11:43;;;;;;;12.13;1.55;;;11.20;56.30;;;;;;5084027;28;20024;-69
2022/02/07 13:14:09;;;;;;;6.95;1.60;;;10.90;56.40;;;;;;5085333;28;20031;-69
2022/02/07 13:16:35;;;;;;;7.97;1.77;;;10.70;56.70;;;;;;5085139;28;20024;-69
2022/02/07 13:19:21;;;;;;;9.48;1.83;;;10.60;57.50;;;;;;5085493;28;20478;-68
2022/02/07 13:21:52;;;;;;;7.60;1.70;;;10.80;57.90;;;;;;5071767;28;20052;-68
2022/02/07 13:24:23;;;;;;;9.80;1.85;;;10.90;57.80;;;;;;5079173;28;20020;-68
2022/02/07 13:26:54;;;;;;;9.73;1.87;;;11.00;57.30;;;;;;5080757;28;20102;-68
2022/02/07 13:29:26;;;;;;;10.93;2.17;;;10.70;57.10;;;;;;5075234;28;21108;-68
2022/02/07 13:32:03;;;;;;;8.77;2.47;;;10.50;58.10;;;;;;5080634;28;20020;-68
2022/02/07 13:34:32;;;;;;;6.82;1.55;;;10.40;58.90;;;;;;5074136;28;20354;-68
2022/02/07 13:37:16;;;;;;;8.77;1.70;;;10.30;59.30;;;;;;5066722;28;20032;-68
2022/02/07 13:39:53;;;;;;;8.63;2.10;;;10.60;59.40;;;;;;5081788;28;20032;-68
2022/02/07 13:42:36;;;;;;;9.05;1.48;;;10.60;57.80;;;;;;5086593;28;20040;-69
2022/02/07 13:45:09;;;;;;;10.00;1.98;;;10.50;58.10;;;;;;5085638;28;20074;-69
2022/02/07 13:47:38;;;;;;;8.27;1.48;;;10.80;58.90;;;;;;5084160;28;20072;-69
2022/02/07 13:50:06;;;;;;;10.60;1.83;;;11.70;56.60;;;;;;5083543;28;20028;-69
2022/02/07 13:52:42;;;;;;;9.10;1.88;;;12.50;55.20;;;;;;5085721;28;20127;-69
2022/02/07 13:55:33;;;;;;;6.65;1.90;;;12.90;52.10;;;;;;5085447;28;20028;-69
2022/02/07 13:58:13;;;;;;;8.15;1.90;;;12.70;52.20;;;;;;5071818;28;20421;-69
2022/02/07 14:00:55;;;;;;;8.25;1.60;;;12.40;53.00;;;;;;5071020;28;20387;-69
2022/02/07 14:03:36;;;;;;;10.15;1.83;;;12.40;53.70;;;;;;5071178;28;20544;-69
2022/02/07 14:06:22;;;;;;;10.48;1.70;;;12.40;53.20;;;;;;5072066;28;20029;-69
2022/02/07 14:09:11;;;;;;;7.93;1.70;;;12.10;53.40;;;;;;5072249;28;20127;-69
2022/02/07 14:11:36;;;;;;;9.50;2.15;;;11.80;54.20;;;;;;5071009;28;20024;-69
2022/02/07 14:14:04;;;;;;;7.18;1.88;;;11.90;55.00;;;;;;5071362;28;20029;-69
2022/02/07 14:16:32;;;;;;;5.18;1.30;;;12.50;54.50;;;;;;5071018;28;20028;-69
2022/02/07 14:18:57;;;;;;;8.98;1.88;;;13.20;53.50;;;;;;5070819;28;20050;-69
2022/02/07 14:21:26;;;;;;;6.70;1.63;;;13.60;52.30;;;;;;5069436;28;20040;-68
2022/02/07 14:23:54;;;;;;;10.43;2.10;;;13.30;52.00;;;;;;5071366;28;20028;-68
2022/02/07 14:26:21;;;;;;;11.50;2.15;;;12.80;52.80;;;;;;5070166;28;20033;-69
2022/02/07 14:28:53;;;;;;;6.10;1.50;;;12.40;53.70;;;;;;5065736;28;20017;-68
2022/02/07 14:31:21;;;;;;;5.85;1.40;;;11.80;54.60;;;;;;5065637;28;20365;-68
2022/02/07 14:33:47;;;;;;;7.13;1.50;;;11.60;55.80;;;;;;5060911;28;20471;-68
2022/02/07 14:36:13;;;;;;;6.40;1.67;;;11.60;55.40;;;;;;5051082;28;20027;-68
2022/02/07 14:38:39;;;;;;;7.97;1.58;;;11.60;55.40;;;;;;5058237;28;20029;-68
2022/02/07 14:41:06;;;;;;;8.10;1.45;;;11.50;54.70;;;;;;5061589;28;20035;-68
2022/02/07 14:43:34;;;;;;;6.43;1.92;;;11.50;54.20;;;;;;5069345;28;20043;-68
2022/02/07 14:48:31;;;;;;;7.85;2.13;;;12.00;53.80;;;;;;5057940;28;20127;-68
2022/02/07 14:50:57;;;;;;;7.20;1.60;;;11.90;53.60;;;;;;5058396;28;20047;-68
2022/02/07 14:53:23;;;;;;;12.80;1.70;;;11.70;53.80;;;;;;5061481;28;20021;-68
2022/02/07 14:55:53;;;;;;;11.35;1.83;;;11.40;54.70;;;;;;5067387;28;20485;-68
2022/02/07 14:58:19;;;;;;;8.65;1.73;;;11.10;55.50;;;;;;5066948;28;20032;-68
2022/02/07 15:00:46;;;;;;;7.95;1.90;;;10.90;56.00;;;;;;5062585;28;20031;-68
2022/02/07 15:03:14;;;;;;;5.10;1.40;;;10.70;57.10;;;;;;5056338;28;20089;-68
2022/02/07 15:05:40;;;;;;;7.00;1.50;;;10.60;57.50;;;;;;5060436;28;20036;-68
2022/02/07 15:08:06;;;;;;;7.78;1.55;;;10.70;57.50;;;;;;5055437;28;20051;-68
2022/02/07 15:10:35;;;;;;;7.22;1.30;;;10.60;57.20;;;;;;5066860;28;20021;-68
2022/02/07 15:13:05;;;;;;;5.80;1.17;;;10.50;57.00;;;;;;5062111;28;20032;-68
2022/02/07 15:15:31;;;;;;;7.75;1.50;;;10.50;57.40;;;;;;5061548;28;20058;-68
2022/02/07 15:17:58;;;;;;;5.03;1.15;;;10.50;57.20;;;;;;5061793;28;20040;-68
2022/02/07 15:20:24;;;;;;;9.25;1.70;;;10.50;57.50;;;;;;5064269;28;20028;-68
2022/02/07 15:22:50;;;;;;;9.00;2.50;;;10.60;57.30;;;;;;5061647;28;20081;-68
2022/02/07 15:25:19;;;;;;;8.23;1.33;;;10.50;57.00;;;;;;5058025;28;20502;-68
2022/02/07 15:27:47;;;;;;;11.23;1.95;;;10.40;57.20;;;;;;5061551;28;20099;-68
2022/02/07 15:30:14;;;;;;;5.90;1.15;;;10.20;57.20;;;;;;5059455;28;20031;-68
2022/02/07 15:32:44;;;;;;;12.52;2.20;;;10.20;57.60;;;;;;5060675;28;20020;-68
2022/02/07 15:35:10;;;;;;;8.45;1.60;;;10.20;57.60;;;;;;5054788;28;20047;-68
2022/02/07 15:37:36;;;;;;;11.80;1.38;;;10.10;57.60;;;;;;5066809;28;20054;-69
2022/02/07 15:40:03;;;;;;;5.00;1.30;;;10.00;57.60;;;;;;5060038;28;20391;-68
2022/02/07 15:42:29;;;;;;;5.35;1.67;;;10.00;57.10;;;;;;5061786;28;20048;-68
2022/02/07 15:45:00;;;;;;;7.80;1.10;;;10.00;57.50;;;;;;5061449;28;20094;-69
2022/02/07 15:47:34;;;;;;;6.93;1.40;;;9.90;57.70;;;;;;5057535;28;20033;-68